createdAt,value
2017-11-22T00:00:01.568Z,1005.82
2017-11-22T00:01:10.399Z,1005.82
2017-11-22T00:02:19.388Z,1005.84
2017-11-22T00:03:28.210Z,1005.84
2017-11-22T00:04:37.049Z,1005.79
2017-11-22T00:05:46.169Z,1005.8
2017-11-22T00:06:54.989Z,1005.86
2017-11-22T00:08:03.972Z,1005.86
2017-11-22T00:09:12.806Z,1005.82
2017-11-22T00:10:22.082Z,1005.76
2017-11-22T00:11:31.112Z,1005.78
2017-11-22T00:12:39.946Z,1005.72
2017-11-22T00:13:49.184Z,1005.79
2017-11-22T00:14:58.002Z,1005.72
2017-11-22T00:16:06.833Z,1005.76
2017-11-22T00:17:15.663Z,1005.68
2017-11-22T00:18:24.499Z,1005.71
2017-11-22T00:19:33.628Z,1005.7
2017-11-22T00:20:42.457Z,1005.71
2017-11-22T00:21:51.289Z,1005.66
2017-11-22T00:23:00.125Z,1005.65
2017-11-22T00:24:09.236Z,1005.62
2017-11-22T00:25:18.365Z,1005.69
2017-11-22T00:26:27.193Z,1005.67
2017-11-22T00:27:36.022Z,1005.7
2017-11-22T00:28:44.852Z,1005.68
2017-11-22T00:29:53.685Z,1005.62
2017-11-22T00:31:03.423Z,1005.7
2017-11-22T00:32:12.252Z,1005.68
2017-11-22T00:33:21.083Z,1005.63
2017-11-22T00:34:29.915Z,1005.7
2017-11-22T00:35:38.745Z,1005.55
2017-11-22T00:36:47.675Z,1005.59
2017-11-22T00:37:56.504Z,1005.58
2017-11-22T00:39:05.334Z,1005.62
2017-11-22T00:40:14.174Z,1005.58
2017-11-22T00:41:22.998Z,1005.58
2017-11-22T00:42:31.825Z,1005.6
2017-11-22T00:43:40.654Z,1005.62
2017-11-22T00:44:49.483Z,1005.55
2017-11-22T00:45:58.313Z,1005.52
2017-11-22T00:47:07.141Z,1005.52
2017-11-22T00:48:16.223Z,1005.58
2017-11-22T00:49:25.332Z,1005.6
2017-11-22T00:50:34.165Z,1005.49
2017-11-22T00:51:42.988Z,1005.49
2017-11-22T00:52:51.815Z,1005.6
2017-11-22T00:54:00.698Z,1005.5
2017-11-22T00:55:09.525Z,1005.59
2017-11-22T00:56:18.353Z,1005.49
2017-11-22T00:57:27.187Z,1005.56
2017-11-22T00:58:36.013Z,1005.49
2017-11-22T00:59:44.995Z,1005.44
2017-11-22T01:00:53.827Z,1005.47
2017-11-22T01:02:02.656Z,1005.38
2017-11-22T01:03:11.486Z,1005.41
2017-11-22T01:04:20.319Z,1005.4
2017-11-22T01:05:29.301Z,1005.42
2017-11-22T01:06:38.134Z,1005.38
2017-11-22T01:07:46.971Z,1005.34
2017-11-22T01:08:55.801Z,1005.39
2017-11-22T01:10:04.912Z,1005.39
2017-11-22T01:11:14.044Z,1005.39
2017-11-22T01:12:22.876Z,1005.4
2017-11-22T01:13:31.703Z,1005.43
2017-11-22T01:14:40.532Z,1005.38
2017-11-22T01:15:49.363Z,1005.41
2017-11-22T01:16:58.628Z,1005.42
2017-11-22T01:18:07.458Z,1005.5
2017-11-22T01:19:16.288Z,1005.42
2017-11-22T01:20:25.118Z,1005.44
2017-11-22T01:21:33.946Z,1005.44
2017-11-22T01:22:42.829Z,1005.42
2017-11-22T01:23:51.657Z,1005.45
2017-11-22T01:25:00.775Z,1005.37
2017-11-22T01:26:09.604Z,1005.4
2017-11-22T01:27:18.434Z,1005.41
2017-11-22T01:28:27.415Z,1005.42
2017-11-22T01:29:36.246Z,1005.33
2017-11-22T01:30:45.073Z,1005.36
2017-11-22T01:31:53.903Z,1005.39
2017-11-22T01:33:02.736Z,1005.38
2017-11-22T01:34:11.574Z,1005.35
2017-11-22T01:35:20.398Z,1005.32
2017-11-22T01:36:29.223Z,1005.29
2017-11-22T01:37:38.060Z,1005.23
2017-11-22T01:38:46.884Z,1005.24
2017-11-22T01:39:55.990Z,1005.24
2017-11-22T01:41:04.822Z,1005.26
2017-11-22T01:42:13.653Z,1005.15
2017-11-22T01:43:22.483Z,1005.17
2017-11-22T01:44:31.311Z,1005.18
2017-11-22T01:45:40.194Z,1005.14
2017-11-22T01:46:49.302Z,1005.17
2017-11-22T01:47:58.130Z,1005.18
2017-11-22T01:49:07.008Z,1005.13
2017-11-22T01:50:15.795Z,1005.09
2017-11-22T01:51:24.875Z,1005.12
2017-11-22T01:52:33.996Z,1005.12
2017-11-22T01:53:42.825Z,1005.05
2017-11-22T01:54:51.940Z,1005.03
2017-11-22T01:56:00.768Z,1005.11
2017-11-22T01:57:09.700Z,1005.03
2017-11-22T01:58:18.530Z,1005.04
2017-11-22T01:59:27.363Z,1005.1
2017-11-22T02:00:36.190Z,1005.1
2017-11-22T02:01:45.018Z,1005.04
2017-11-22T02:02:53.998Z,1005.09
2017-11-22T02:04:02.823Z,1005.12
2017-11-22T02:05:11.651Z,1005.03
2017-11-22T02:06:20.480Z,1005.1
2017-11-22T02:07:29.308Z,1005.18
2017-11-22T02:08:38.286Z,1005.09
2017-11-22T02:09:47.114Z,1005.06
2017-11-22T02:10:55.951Z,1005.11
2017-11-22T02:12:04.770Z,1005.06
2017-11-22T02:13:13.601Z,1005.04
2017-11-22T02:14:22.432Z,1005.05
2017-11-22T02:15:31.260Z,1005.05
2017-11-22T02:16:40.370Z,1005.04
2017-11-22T02:17:49.199Z,1005.08
2017-11-22T02:18:58.028Z,1004.97
2017-11-22T02:20:07.241Z,1004.94
2017-11-22T02:21:16.069Z,1004.94
2017-11-22T02:22:24.907Z,1004.93
2017-11-22T02:23:33.735Z,1004.88
2017-11-22T02:24:42.566Z,1004.91
2017-11-22T02:25:51.685Z,1004.9
2017-11-22T02:27:00.516Z,1004.88
2017-11-22T02:28:09.345Z,1004.94
2017-11-22T02:29:18.175Z,1004.9
2017-11-22T02:30:27.007Z,1004.82
2017-11-22T02:31:36.242Z,1004.93
2017-11-22T02:32:45.069Z,1004.89
2017-11-22T02:33:53.909Z,1004.93
2017-11-22T02:35:03.297Z,1004.86
2017-11-22T02:36:12.133Z,1004.89
2017-11-22T02:37:21.479Z,1004.87
2017-11-22T02:38:30.310Z,1004.86
2017-11-22T02:39:39.137Z,1004.9
2017-11-22T02:40:47.968Z,1004.91
2017-11-22T02:41:56.798Z,1004.88
2017-11-22T02:43:05.877Z,1004.87
2017-11-22T02:44:14.716Z,1004.92
2017-11-22T02:45:23.538Z,1004.84
2017-11-22T02:46:32.372Z,1004.86
2017-11-22T02:47:41.193Z,1004.81
2017-11-22T02:48:50.125Z,1004.79
2017-11-22T02:49:59.233Z,1004.77
2017-11-22T02:51:08.349Z,1004.71
2017-11-22T02:52:17.175Z,1004.69
2017-11-22T02:53:26.003Z,1004.54
2017-11-22T02:54:35.329Z,1004.68
2017-11-22T02:55:44.160Z,1004.62
2017-11-22T02:56:52.999Z,1004.62
2017-11-22T02:58:01.821Z,1004.56
2017-11-22T02:59:10.649Z,1004.66
2017-11-22T03:00:19.680Z,1004.61
2017-11-22T03:01:28.785Z,1004.63
2017-11-22T03:02:37.618Z,1004.61
2017-11-22T03:03:46.441Z,1004.73
2017-11-22T03:04:55.269Z,1004.67
2017-11-22T03:06:04.100Z,1004.74
2017-11-22T03:07:12.930Z,1004.64
2017-11-22T03:08:21.757Z,1004.73
2017-11-22T03:09:30.586Z,1004.69
2017-11-22T03:10:39.416Z,1004.74
2017-11-22T03:11:48.247Z,1004.69
2017-11-22T03:12:57.359Z,1004.62
2017-11-22T03:14:06.179Z,1004.65
2017-11-22T03:15:15.011Z,1004.58
2017-11-22T03:16:24.118Z,1004.53
2017-11-22T03:17:33.248Z,1004.54
2017-11-22T03:18:42.078Z,1004.54
2017-11-22T03:19:51.190Z,1004.48
2017-11-22T03:21:00.019Z,1004.47
2017-11-22T03:22:09.130Z,1004.52
2017-11-22T03:23:17.962Z,1004.51
2017-11-22T03:24:27.343Z,1004.53
2017-11-22T03:25:36.453Z,1004.65
2017-11-22T03:26:45.568Z,1004.57
2017-11-22T03:27:54.400Z,1004.46
2017-11-22T03:29:03.659Z,1004.65
2017-11-22T03:30:12.497Z,1004.6
2017-11-22T03:31:21.331Z,1004.61
2017-11-22T03:32:30.161Z,1004.5
2017-11-22T03:33:38.989Z,1004.52
2017-11-22T03:34:48.198Z,1004.45
2017-11-22T03:35:57.027Z,1004.51
2017-11-22T03:37:05.856Z,1004.5
2017-11-22T03:38:14.963Z,1004.44
2017-11-22T03:39:24.350Z,1004.41
2017-11-22T03:40:33.180Z,1004.46
2017-11-22T03:41:42.029Z,1004.41
2017-11-22T03:42:50.839Z,1004.39
2017-11-22T03:43:59.948Z,1004.45
2017-11-22T03:45:08.779Z,1004.44
2017-11-22T03:46:17.657Z,1004.49
2017-11-22T03:47:26.487Z,1004.45
2017-11-22T03:48:35.316Z,1004.49
2017-11-22T03:49:44.144Z,1004.5
2017-11-22T03:50:52.973Z,1004.47
2017-11-22T03:52:01.802Z,1004.4
2017-11-22T03:53:10.631Z,1004.46
2017-11-22T03:54:19.462Z,1004.48
2017-11-22T03:55:28.293Z,1004.44
2017-11-22T03:56:37.123Z,1004.5
2017-11-22T03:57:46.012Z,1004.44
2017-11-22T03:58:54.832Z,1004.45
2017-11-22T04:00:03.661Z,1004.51
2017-11-22T04:01:12.552Z,1004.47
2017-11-22T04:02:21.373Z,1004.4
2017-11-22T04:03:30.483Z,1004.36
2017-11-22T04:04:39.310Z,1004.28
2017-11-22T04:05:48.142Z,1004.36
2017-11-22T04:06:57.251Z,1004.25
2017-11-22T04:08:06.086Z,1004.24
2017-11-22T04:09:14.963Z,1004.21
2017-11-22T04:10:23.792Z,1004.18
2017-11-22T04:11:32.823Z,1004.13
2017-11-22T04:12:41.653Z,1004.21
2017-11-22T04:13:50.481Z,1004.27
2017-11-22T04:14:59.461Z,1004.23
2017-11-22T04:16:08.290Z,1004.26
2017-11-22T04:17:17.121Z,1004.28
2017-11-22T04:18:25.951Z,1004.17
2017-11-22T04:19:34.780Z,1004.22
2017-11-22T04:20:43.609Z,1004.18
2017-11-22T04:21:52.441Z,1004.16
2017-11-22T04:23:01.271Z,1004.18
2017-11-22T04:24:10.100Z,1004.23
2017-11-22T04:25:18.930Z,1004.14
2017-11-22T04:26:27.765Z,1004.16
2017-11-22T04:27:36.868Z,1004.16
2017-11-22T04:28:45.988Z,1004.14
2017-11-22T04:29:54.817Z,1004.22
2017-11-22T04:31:03.928Z,1004.22
2017-11-22T04:32:12.908Z,1004.15
2017-11-22T04:33:21.737Z,1004.09
2017-11-22T04:34:30.570Z,1004.07
2017-11-22T04:35:39.399Z,1004.21
2017-11-22T04:36:48.228Z,1004.13
2017-11-22T04:37:57.104Z,1004.14
2017-11-22T04:39:05.934Z,1004.28
2017-11-22T04:40:14.766Z,1004.11
2017-11-22T04:41:23.601Z,1004.17
2017-11-22T04:42:32.425Z,1004.16
2017-11-22T04:43:41.655Z,1004.06
2017-11-22T04:44:50.484Z,1004.16
2017-11-22T04:45:59.311Z,1004.06
2017-11-22T04:47:08.141Z,1004.13
2017-11-22T04:48:16.971Z,1004.15
2017-11-22T04:49:25.851Z,1004.16
2017-11-22T04:50:34.678Z,1004.11
2017-11-22T04:51:43.511Z,1004.09
2017-11-22T04:52:52.338Z,1004.07
2017-11-22T04:54:01.167Z,1004.07
2017-11-22T04:55:09.997Z,1004.01
2017-11-22T04:56:19.379Z,1004.09
2017-11-22T04:57:28.211Z,1004.17
2017-11-22T04:58:37.039Z,1004.12
2017-11-22T04:59:45.868Z,1004.15
2017-11-22T05:00:54.950Z,1004.13
2017-11-22T05:02:03.780Z,1004.12
2017-11-22T05:03:12.610Z,1004.17
2017-11-22T05:04:21.717Z,1004.13
2017-11-22T05:05:30.825Z,1004.08
2017-11-22T05:06:39.650Z,1004.2
2017-11-22T05:07:48.479Z,1004.05
2017-11-22T05:08:57.306Z,1004.1
2017-11-22T05:10:06.137Z,1004.09
2017-11-22T05:11:14.965Z,1004.05
2017-11-22T05:12:23.892Z,1004.03
2017-11-22T05:13:32.730Z,1004.12
2017-11-22T05:14:41.833Z,1004.11
2017-11-22T05:15:50.663Z,1004.1
2017-11-22T05:16:59.494Z,1004.07
2017-11-22T05:18:08.604Z,1004.12
2017-11-22T05:19:17.437Z,1004.11
2017-11-22T05:20:26.263Z,1004.14
2017-11-22T05:21:35.090Z,1004.14
2017-11-22T05:22:43.918Z,1004.14
2017-11-22T05:23:52.901Z,1004.08
2017-11-22T05:25:01.729Z,1004.09
2017-11-22T05:26:10.558Z,1004.11
2017-11-22T05:27:19.387Z,1004.09
2017-11-22T05:28:28.218Z,1004.13
2017-11-22T05:29:37.049Z,1004.13
2017-11-22T05:30:45.883Z,1004.1
2017-11-22T05:31:54.707Z,1004.16
2017-11-22T05:33:03.539Z,1004.21
2017-11-22T05:34:12.371Z,1004.12
2017-11-22T05:35:21.301Z,1004.16
2017-11-22T05:36:30.131Z,1004.25
2017-11-22T05:37:38.959Z,1004.26
2017-11-22T05:38:47.785Z,1004.3
2017-11-22T05:39:56.712Z,1004.31
2017-11-22T05:41:05.932Z,1004.25
2017-11-22T05:42:14.763Z,1004.35
2017-11-22T05:43:23.592Z,1004.3
2017-11-22T05:44:32.420Z,1004.3
2017-11-22T05:45:41.533Z,1004.33
2017-11-22T05:46:50.507Z,1004.28
2017-11-22T05:47:59.336Z,1004.22
2017-11-22T05:49:08.723Z,1004.26
2017-11-22T05:50:17.552Z,1004.32
2017-11-22T05:51:26.659Z,1004.19
2017-11-22T05:52:35.538Z,1004.25
2017-11-22T05:53:44.370Z,1004.29
2017-11-22T05:54:53.200Z,1004.21
2017-11-22T05:56:02.027Z,1004.25
2017-11-22T05:57:10.855Z,1004.28
2017-11-22T05:58:19.738Z,1004.23
2017-11-22T05:59:28.570Z,1004.3
2017-11-22T06:00:37.403Z,1004.32
2017-11-22T06:01:46.228Z,1004.28
2017-11-22T06:02:55.062Z,1004.29
2017-11-22T06:04:03.894Z,1004.33
2017-11-22T06:05:12.724Z,1004.35
2017-11-22T06:06:21.556Z,1004.3
2017-11-22T06:07:30.391Z,1004.24
2017-11-22T06:08:39.218Z,1004.27
2017-11-22T06:09:48.197Z,1004.2
2017-11-22T06:10:57.028Z,1004.37
2017-11-22T06:12:05.858Z,1004.27
2017-11-22T06:13:14.687Z,1004.16
2017-11-22T06:14:23.516Z,1004.25
2017-11-22T06:15:32.447Z,1004.19
2017-11-22T06:16:41.276Z,1004.26
2017-11-22T06:17:50.105Z,1004.12
2017-11-22T06:18:58.933Z,1004.22
2017-11-22T06:20:07.764Z,1004.14
2017-11-22T06:21:16.598Z,1004.11
2017-11-22T06:22:25.428Z,1004.06
2017-11-22T06:23:34.257Z,1004.02
2017-11-22T06:24:43.086Z,1003.98
2017-11-22T06:25:51.919Z,1004.02
2017-11-22T06:27:01.034Z,1003.97
2017-11-22T06:28:10.154Z,1004
2017-11-22T06:29:18.990Z,1004.02
2017-11-22T06:30:27.819Z,1004.03
2017-11-22T06:31:36.649Z,1003.92
2017-11-22T06:32:45.487Z,1003.91
2017-11-22T06:33:54.312Z,1004.01
2017-11-22T06:35:03.148Z,1004.09
2017-11-22T06:36:11.975Z,1004.05
2017-11-22T06:37:20.836Z,1004.07
2017-11-22T06:38:29.828Z,1004.17
2017-11-22T06:39:38.825Z,1004.26
2017-11-22T06:40:47.904Z,1004.24
2017-11-22T06:41:56.764Z,1004.3
2017-11-22T06:43:05.632Z,1004.44
2017-11-22T06:44:14.460Z,1004.43
2017-11-22T06:45:23.292Z,1004.44
2017-11-22T06:46:32.124Z,1004.37
2017-11-22T06:47:40.961Z,1004.54
2017-11-22T06:48:49.789Z,1004.58
2017-11-22T06:49:58.620Z,1004.6
2017-11-22T06:51:07.452Z,1004.56
2017-11-22T06:52:16.283Z,1004.54
2017-11-22T06:53:25.117Z,1004.5
2017-11-22T06:54:33.948Z,1004.49
2017-11-22T06:55:42.781Z,1004.55
2017-11-22T06:56:51.610Z,1004.62
2017-11-22T06:58:00.541Z,1004.65
2017-11-22T06:59:09.372Z,1004.72
2017-11-22T07:00:18.208Z,1004.74
2017-11-22T07:01:27.322Z,1004.68
2017-11-22T07:02:36.152Z,1004.73
2017-11-22T07:03:45.015Z,1004.69
2017-11-22T07:04:53.846Z,1004.72
2017-11-22T07:06:02.702Z,1004.71
2017-11-22T07:07:11.532Z,1004.77
2017-11-22T07:08:20.366Z,1004.73
2017-11-22T07:09:29.296Z,1004.81
2017-11-22T07:10:38.128Z,1004.84
2017-11-22T07:11:47.109Z,1004.8
2017-11-22T07:12:55.940Z,1004.85
2017-11-22T07:14:04.772Z,1004.85
2017-11-22T07:15:13.913Z,1004.96
2017-11-22T07:16:22.738Z,1004.89
2017-11-22T07:17:31.571Z,1004.9
2017-11-22T07:18:40.402Z,1004.91
2017-11-22T07:19:49.231Z,1004.94
2017-11-22T07:20:58.336Z,1004.92
2017-11-22T07:22:07.167Z,1004.86
2017-11-22T07:23:16.002Z,1004.84
2017-11-22T07:24:24.834Z,1004.76
2017-11-22T07:25:33.764Z,1004.82
2017-11-22T07:26:42.593Z,1004.74
2017-11-22T07:27:51.424Z,1004.73
2017-11-22T07:29:00.533Z,1004.82
2017-11-22T07:30:09.366Z,1004.77
2017-11-22T07:31:18.196Z,1004.76
2017-11-22T07:32:27.307Z,1004.76
2017-11-22T07:33:36.424Z,1004.78
2017-11-22T07:34:45.254Z,1004.7
2017-11-22T07:35:54.089Z,1004.72
2017-11-22T07:37:02.917Z,1004.81
2017-11-22T07:38:11.755Z,1004.78
2017-11-22T07:39:20.588Z,1004.71
2017-11-22T07:40:29.422Z,1004.69
2017-11-22T07:41:38.251Z,1004.88
2017-11-22T07:42:47.089Z,1004.81
2017-11-22T07:43:55.919Z,1004.8
2017-11-22T07:45:04.752Z,1004.8
2017-11-22T07:46:13.684Z,1004.81
2017-11-22T07:47:22.514Z,1004.89
2017-11-22T07:48:32.186Z,1004.81
2017-11-22T07:49:41.022Z,1004.74
2017-11-22T07:50:50.141Z,1004.77
2017-11-22T07:51:59.119Z,1004.8
2017-11-22T07:53:07.951Z,1004.73
2017-11-22T07:54:16.788Z,1004.78
2017-11-22T07:55:25.612Z,1004.8
2017-11-22T07:56:34.444Z,1004.69
2017-11-22T07:57:43.428Z,1004.67
2017-11-22T07:58:52.257Z,1004.66
2017-11-22T08:00:01.088Z,1004.68
2017-11-22T08:01:09.920Z,1004.69
2017-11-22T08:02:18.751Z,1004.68
2017-11-22T08:03:27.867Z,1004.72
2017-11-22T08:04:36.694Z,1004.72
2017-11-22T08:05:45.553Z,1004.74
2017-11-22T08:06:54.357Z,1004.72
2017-11-22T08:08:03.189Z,1004.81
2017-11-22T08:09:12.357Z,1004.8
2017-11-22T08:10:21.188Z,1004.84
2017-11-22T08:11:30.020Z,1004.86
2017-11-22T08:12:38.847Z,1004.91
2017-11-22T08:13:47.679Z,1004.88
2017-11-22T08:14:56.712Z,1004.81
2017-11-22T08:16:05.545Z,1004.9
2017-11-22T08:17:14.372Z,1004.88
2017-11-22T08:18:23.203Z,1004.9
2017-11-22T08:19:32.033Z,1004.96
2017-11-22T08:20:41.013Z,1004.95
2017-11-22T08:21:49.844Z,1004.82
2017-11-22T08:22:58.673Z,1004.85
2017-11-22T08:24:07.505Z,1004.91
2017-11-22T08:25:16.347Z,1004.88
2017-11-22T08:26:25.165Z,1004.9
2017-11-22T08:27:33.997Z,1004.9
2017-11-22T08:28:42.827Z,1004.84
2017-11-22T08:29:51.656Z,1004.87
2017-11-22T08:31:00.511Z,1004.9
2017-11-22T08:32:09.368Z,1004.96
2017-11-22T08:33:18.204Z,1004.89
2017-11-22T08:34:27.034Z,1004.89
2017-11-22T08:35:35.866Z,1005.04
2017-11-22T08:36:44.699Z,1004.84
2017-11-22T08:37:53.678Z,1004.99
2017-11-22T08:39:02.508Z,1004.93
2017-11-22T08:40:11.341Z,1004.79
2017-11-22T08:41:20.171Z,1004.97
2017-11-22T08:42:29.010Z,1004.92
2017-11-22T08:43:38.165Z,1004.97
2017-11-22T08:44:46.999Z,1004.95
2017-11-22T08:45:55.831Z,1004.99
2017-11-22T08:47:05.254Z,1004.91
2017-11-22T08:48:14.361Z,1004.92
2017-11-22T08:49:23.343Z,1004.92
2017-11-22T08:50:32.174Z,1005.05
2017-11-22T08:51:41.005Z,1004.98
2017-11-22T08:52:49.835Z,1005.01
2017-11-22T08:53:58.668Z,1004.99
2017-11-22T08:55:07.799Z,1005.06
2017-11-22T08:56:16.630Z,1005.1
2017-11-22T08:57:25.460Z,1005.02
2017-11-22T08:58:34.294Z,1004.98
2017-11-22T08:59:43.127Z,1005.01
2017-11-22T09:00:52.111Z,1005.02
2017-11-22T09:02:00.943Z,1004.95
2017-11-22T09:03:09.783Z,1005.06
2017-11-22T09:04:18.610Z,1005
2017-11-22T09:05:27.444Z,1005.06
2017-11-22T09:06:36.327Z,1005.02
2017-11-22T09:07:45.159Z,1004.98
2017-11-22T09:08:53.991Z,1005.05
2017-11-22T09:10:02.822Z,1005.04
2017-11-22T09:11:11.651Z,1005.16
2017-11-22T09:12:20.634Z,1005.07
2017-11-22T09:13:29.466Z,1005.13
2017-11-22T09:14:38.298Z,1005.13
2017-11-22T09:15:47.128Z,1005.24
2017-11-22T09:16:55.960Z,1005.18
2017-11-22T09:18:04.840Z,1005.24
2017-11-22T09:19:13.669Z,1005.25
2017-11-22T09:20:22.501Z,1005.25
2017-11-22T09:21:31.333Z,1005.15
2017-11-22T09:22:40.171Z,1005.26
2017-11-22T09:23:49.149Z,1005.35
2017-11-22T09:24:57.981Z,1005.38
2017-11-22T09:26:06.810Z,1005.34
2017-11-22T09:27:15.647Z,1005.35
2017-11-22T09:28:24.474Z,1005.42
2017-11-22T09:29:33.451Z,1005.37
2017-11-22T09:30:42.278Z,1005.32
2017-11-22T09:31:51.397Z,1005.35
2017-11-22T09:33:00.222Z,1005.4
2017-11-22T09:34:09.053Z,1005.4
2017-11-22T09:35:18.165Z,1005.44
2017-11-22T09:36:26.997Z,1005.38
2017-11-22T09:37:35.828Z,1005.45
2017-11-22T09:38:44.958Z,1005.43
2017-11-22T09:39:53.781Z,1005.39
2017-11-22T09:41:02.762Z,1005.45
2017-11-22T09:42:11.596Z,1005.38
2017-11-22T09:43:20.427Z,1005.43
2017-11-22T09:44:29.257Z,1005.42
2017-11-22T09:45:38.367Z,1005.47
2017-11-22T09:46:47.248Z,1005.53
2017-11-22T09:47:56.080Z,1005.47
2017-11-22T09:49:04.912Z,1005.51
2017-11-22T09:50:13.747Z,1005.48
2017-11-22T09:51:22.581Z,1005.46
2017-11-22T09:52:31.713Z,1005.37
2017-11-22T09:53:40.543Z,1005.49
2017-11-22T09:54:49.374Z,1005.48
2017-11-22T09:55:58.204Z,1005.47
2017-11-22T09:57:07.313Z,1005.53
2017-11-22T09:58:16.296Z,1005.5
2017-11-22T09:59:25.127Z,1005.51
2017-11-22T10:00:33.959Z,1005.48
2017-11-22T10:01:42.791Z,1005.53
2017-11-22T10:02:51.625Z,1005.54
2017-11-22T10:04:00.454Z,1005.36
2017-11-22T10:05:09.567Z,1005.56
2017-11-22T10:06:18.392Z,1005.51
2017-11-22T10:07:27.224Z,1005.48
2017-11-22T10:08:36.061Z,1005.56
2017-11-22T10:09:44.988Z,1005.57
2017-11-22T10:10:53.817Z,1005.51
2017-11-22T10:12:02.650Z,1005.5
2017-11-22T10:13:11.478Z,1005.53
2017-11-22T10:14:20.311Z,1005.53
2017-11-22T10:15:29.142Z,1005.53
2017-11-22T10:16:37.973Z,1005.45
2017-11-22T10:17:46.802Z,1005.52
2017-11-22T10:18:55.633Z,1005.54
2017-11-22T10:20:04.464Z,1005.52
2017-11-22T10:21:13.697Z,1005.5
2017-11-22T10:22:22.533Z,1005.54
2017-11-22T10:23:31.367Z,1005.6
2017-11-22T10:24:40.477Z,1005.57
2017-11-22T10:25:49.304Z,1005.6
2017-11-22T10:26:58.337Z,1005.57
2017-11-22T10:28:07.167Z,1005.68
2017-11-22T10:29:15.999Z,1005.54
2017-11-22T10:30:24.829Z,1005.54
2017-11-22T10:31:33.939Z,1005.53
2017-11-22T10:32:42.819Z,1005.52
2017-11-22T10:33:51.649Z,1005.53
2017-11-22T10:35:00.483Z,1005.56
2017-11-22T10:36:09.314Z,1005.57
2017-11-22T10:37:18.149Z,1005.56
2017-11-22T10:38:26.974Z,1005.55
2017-11-22T10:39:35.805Z,1005.63
2017-11-22T10:40:44.634Z,1005.65
2017-11-22T10:41:53.465Z,1005.66
2017-11-22T10:43:02.294Z,1005.53
2017-11-22T10:44:11.528Z,1005.58
2017-11-22T10:45:20.360Z,1005.43
2017-11-22T10:46:29.189Z,1005.59
2017-11-22T10:47:38.023Z,1005.56
2017-11-22T10:48:46.854Z,1005.65
2017-11-22T10:49:55.736Z,1005.58
2017-11-22T10:51:04.567Z,1005.55
2017-11-22T10:52:13.675Z,1005.51
2017-11-22T10:53:22.504Z,1005.5
2017-11-22T10:54:31.333Z,1005.55
2017-11-22T10:55:40.164Z,1005.5
2017-11-22T10:56:49.001Z,1005.47
2017-11-22T10:57:57.894Z,1005.45
2017-11-22T10:59:07.069Z,1005.52
2017-11-22T11:00:15.956Z,1005.47
2017-11-22T11:01:24.963Z,1005.45
2017-11-22T11:02:33.823Z,1005.46
2017-11-22T11:03:42.683Z,1005.44
2017-11-22T11:04:51.546Z,1005.46
2017-11-22T11:06:00.405Z,1005.47
2017-11-22T11:07:09.649Z,1005.48
2017-11-22T11:08:18.788Z,1005.48
2017-11-22T11:09:27.651Z,1005.52
2017-11-22T11:10:36.513Z,1005.53
2017-11-22T11:11:45.372Z,1005.52
2017-11-22T11:12:54.283Z,1005.54
2017-11-22T11:14:03.145Z,1005.52
2017-11-22T11:15:12.287Z,1005.51
2017-11-22T11:16:21.147Z,1005.49
2017-11-22T11:17:30.009Z,1005.48
2017-11-22T11:18:38.968Z,1005.56
2017-11-22T11:19:47.830Z,1005.48
2017-11-22T11:20:56.971Z,1005.55
2017-11-22T11:22:05.832Z,1005.63
2017-11-22T11:23:14.691Z,1005.54
2017-11-22T11:24:23.603Z,1005.52
2017-11-22T11:25:32.745Z,1005.59
2017-11-22T11:26:41.607Z,1005.59
2017-11-22T11:27:50.467Z,1005.57
2017-11-22T11:28:59.329Z,1005.61
2017-11-22T11:30:08.237Z,1005.55
2017-11-22T11:31:17.099Z,1005.48
2017-11-22T11:32:25.961Z,1005.55
2017-11-22T11:33:34.828Z,1005.49
2017-11-22T11:34:43.682Z,1005.56
2017-11-22T11:35:52.545Z,1005.51
2017-11-22T11:37:01.693Z,1005.54
2017-11-22T11:38:10.546Z,1005.5
2017-11-22T11:39:19.405Z,1005.53
2017-11-22T11:40:28.262Z,1005.56
2017-11-22T11:41:37.559Z,1005.58
2017-11-22T11:42:46.423Z,1005.56
2017-11-22T11:43:55.282Z,1005.6
2017-11-22T11:45:04.143Z,1005.63
2017-11-22T11:46:13.003Z,1005.58
2017-11-22T11:47:22.263Z,1005.62
2017-11-22T11:48:31.125Z,1005.62
2017-11-22T11:49:39.985Z,1005.56
2017-11-22T11:50:48.847Z,1005.62
2017-11-22T11:51:57.707Z,1005.65
2017-11-22T11:53:06.854Z,1005.59
2017-11-22T11:54:16.003Z,1005.72
2017-11-22T11:55:24.864Z,1005.64
2017-11-22T11:56:33.726Z,1005.62
2017-11-22T11:57:42.584Z,1005.63
2017-11-22T11:58:51.596Z,1005.75
2017-11-22T12:00:00.454Z,1005.62
2017-11-22T12:01:09.316Z,1005.68
2017-11-22T12:02:18.178Z,1005.64
2017-11-22T12:03:27.038Z,1005.65
2017-11-22T12:04:36.203Z,1005.65
2017-11-22T12:05:45.345Z,1005.58
2017-11-22T12:06:54.214Z,1005.68
2017-11-22T12:08:03.360Z,1005.61
2017-11-22T12:09:12.221Z,1005.59
2017-11-22T12:10:21.085Z,1005.59
2017-11-22T12:11:29.947Z,1005.68
2017-11-22T12:12:38.814Z,1005.62
2017-11-22T12:13:47.669Z,1005.62
2017-11-22T12:14:56.531Z,1005.55
2017-11-22T12:16:05.643Z,1005.63
2017-11-22T12:17:14.506Z,1005.55
2017-11-22T12:18:23.367Z,1005.58
2017-11-22T12:19:32.238Z,1005.57
2017-11-22T12:20:41.374Z,1005.54
2017-11-22T12:21:50.485Z,1005.54
2017-11-22T12:22:59.347Z,1005.45
2017-11-22T12:24:08.214Z,1005.56
2017-11-22T12:25:17.077Z,1005.56
2017-11-22T12:26:25.941Z,1005.54
2017-11-22T12:27:35.134Z,1005.6
2017-11-22T12:28:44.296Z,1005.53
2017-11-22T12:29:53.159Z,1005.58
2017-11-22T12:31:02.019Z,1005.63
2017-11-22T12:32:10.879Z,1005.59
2017-11-22T12:33:20.040Z,1005.57
2017-11-22T12:34:28.905Z,1005.54
2017-11-22T12:35:38.042Z,1005.54
2017-11-22T12:36:46.903Z,1005.6
2017-11-22T12:37:55.761Z,1005.65
2017-11-22T12:39:04.774Z,1005.58
2017-11-22T12:40:13.637Z,1005.56
2017-11-22T12:41:22.499Z,1005.56
2017-11-22T12:42:31.645Z,1005.57
2017-11-22T12:43:40.505Z,1005.58
2017-11-22T12:44:49.468Z,1005.64
2017-11-22T12:45:58.328Z,1005.54
2017-11-22T12:47:07.190Z,1005.6
2017-11-22T12:48:16.056Z,1005.48
2017-11-22T12:49:24.922Z,1005.6
2017-11-22T12:50:33.785Z,1005.61
2017-11-22T12:51:42.638Z,1005.54
2017-11-22T12:52:51.500Z,1005.51
2017-11-22T12:54:00.363Z,1005.52
2017-11-22T12:55:09.503Z,1005.48
2017-11-22T12:56:18.467Z,1005.55
2017-11-22T12:57:27.608Z,1005.55
2017-11-22T12:58:36.470Z,1005.61
2017-11-22T12:59:45.329Z,1005.6
2017-11-22T13:00:54.194Z,1005.52
2017-11-22T13:02:03.303Z,1005.52
2017-11-22T13:03:12.164Z,1005.57
2017-11-22T13:04:21.027Z,1005.52
2017-11-22T13:05:29.890Z,1005.42
2017-11-22T13:06:38.752Z,1005.4
2017-11-22T13:07:48.015Z,1005.44
2017-11-22T13:08:56.873Z,1005.39
2017-11-22T13:10:05.786Z,1005.46
2017-11-22T13:11:14.649Z,1005.4
2017-11-22T13:12:23.510Z,1005.4
2017-11-22T13:13:32.369Z,1005.37
2017-11-22T13:14:41.232Z,1005.3
2017-11-22T13:15:50.373Z,1005.41
2017-11-22T13:16:59.233Z,1005.37
2017-11-22T13:18:08.092Z,1005.37
2017-11-22T13:19:17.004Z,1005.37
2017-11-22T13:20:25.866Z,1005.28
2017-11-22T13:21:34.726Z,1005.42
2017-11-22T13:22:43.589Z,1005.35
2017-11-22T13:23:52.451Z,1005.34
2017-11-22T13:25:01.362Z,1005.34
2017-11-22T13:26:10.228Z,1005.33
2017-11-22T13:27:19.082Z,1005.38
2017-11-22T13:28:27.944Z,1005.3
2017-11-22T13:29:36.805Z,1005.39
2017-11-22T13:30:45.718Z,1005.38
2017-11-22T13:31:54.580Z,1005.34
2017-11-22T13:33:03.438Z,1005.47
2017-11-22T13:34:12.580Z,1005.37
2017-11-22T13:35:21.443Z,1005.4
2017-11-22T13:36:30.603Z,1005.43
2017-11-22T13:37:39.759Z,1005.39
2017-11-22T13:38:48.624Z,1005.42
2017-11-22T13:39:57.480Z,1005.39
2017-11-22T13:41:06.342Z,1005.5
2017-11-22T13:42:15.455Z,1005.43
2017-11-22T13:43:24.596Z,1005.38
2017-11-22T13:44:33.462Z,1005.33
2017-11-22T13:45:42.324Z,1005.28
2017-11-22T13:46:51.186Z,1005.27
2017-11-22T13:48:00.144Z,1005.07
2017-11-22T13:49:09.007Z,1005.2
2017-11-22T13:50:17.881Z,1005.27
2017-11-22T13:51:26.746Z,1005.25
2017-11-22T13:52:35.619Z,1005.24
2017-11-22T13:53:44.490Z,1005.3
2017-11-22T13:54:53.364Z,1005.28
2017-11-22T13:56:02.820Z,1005.25